sensor_id;sensor_type;location;lat;lon;timestamp;pressure;altitude;pressure_sealevel;temperature;humidity
42001;BME280;27689;48.390;10.856;2022-07-01T00:01:38;95983.50;;;19.90;72.47
42001;BME280;27689;48.390;10.856;2022-07-01T00:04:23;95991.13;;;19.80;72.80
42001;BME280;27689;48.390;10.856;2022-07-01T00:07:10;95989.06;;;19.75;73.20
42001;BME280;27689;48.390;10.856;2022-07-01T00:09:55;95986.19;;;19.77;73.23
42001;BME280;27689;48.390;10.856;2022-07-01T00:12:39;95994.63;;;19.74;73.35
42001;BME280;27689;48.390;10.856;2022-07-01T00:15:23;95990.31;;;19.73;73.69
42001;BME280;27689;48.390;10.856;2022-07-01T00:18:07;95994.81;;;19.65;74.01
42001;BME280;27689;48.390;10.856;2022-07-01T00:20:51;96018.34;;;19.55;74.75
42001;BME280;27689;48.390;10.856;2022-07-01T00:23:35;96037.34;;;19.52;75.30
42001;BME280;27689;48.390;10.856;2022-07-01T00:26:20;96038.53;;;19.43;76.29
42001;BME280;27689;48.390;10.856;2022-07-01T00:29:03;96016.66;;;19.34;76.80
42001;BME280;27689;48.390;10.856;2022-07-01T00:31:48;96019.50;;;19.33;77.39
42001;BME280;27689;48.390;10.856;2022-07-01T00:34:32;96030.53;;;19.30;77.85
42001;BME280;27689;48.390;10.856;2022-07-01T00:37:16;96044.81;;;19.16;78.93
42001;BME280;27689;48.390;10.856;2022-07-01T00:40:00;96040.31;;;19.03;80.30
42001;BME280;27689;48.390;10.856;2022-07-01T00:42:44;96045.81;;;19.01;80.25
42001;BME280;27689;48.390;10.856;2022-07-01T00:45:29;96040.31;;;18.96;80.80
42001;BME280;27689;48.390;10.856;2022-07-01T00:48:13;96047.25;;;18.97;80.78
42001;BME280;27689;48.390;10.856;2022-07-01T00:50:57;96025.41;;;19.02;80.48
42001;BME280;27689;48.390;10.856;2022-07-01T00:53:41;96030.31;;;18.98;80.87
42001;BME280;27689;48.390;10.856;2022-07-01T00:56:25;96029.50;;;18.98;81.01
42001;BME280;27689;48.390;10.856;2022-07-01T00:59:09;96040.88;;;18.79;82.93
42001;BME280;27689;48.390;10.856;2022-07-01T01:01:53;96031.47;;;18.76;82.69
42001;BME280;27689;48.390;10.856;2022-07-01T01:04:37;96024.69;;;18.60;83.71
42001;BME280;27689;48.390;10.856;2022-07-01T01:07:21;96029.19;;;18.66;83.34
42001;BME280;27689;48.390;10.856;2022-07-01T01:10:05;96029.41;;;18.65;83.88
42001;BME280;27689;48.390;10.856;2022-07-01T01:12:49;96006.75;;;18.69;84.00
42001;BME280;27689;48.390;10.856;2022-07-01T01:15:33;95994.44;;;18.55;84.96
42001;BME280;27689;48.390;10.856;2022-07-01T01:18:17;96003.44;;;18.60;85.48
42001;BME280;27689;48.390;10.856;2022-07-01T01:21:01;96000.31;;;18.50;86.96
42001;BME280;27689;48.390;10.856;2022-07-01T01:23:45;96001.72;;;18.40;88.86
42001;BME280;27689;48.390;10.856;2022-07-01T01:26:29;95995.38;;;18.41;89.07
42001;BME280;27689;48.390;10.856;2022-07-01T01:29:13;95996.97;;;18.28;90.47
42001;BME280;27689;48.390;10.856;2022-07-01T01:31:57;95997.34;;;18.19;93.21
42001;BME280;27689;48.390;10.856;2022-07-01T01:34:41;95992.28;;;18.24;91.95
42001;BME280;27689;48.390;10.856;2022-07-01T01:37:25;95996.53;;;18.18;91.93
42001;BME280;27689;48.390;10.856;2022-07-01T01:40:11;96005.88;;;18.14;92.94
42001;BME280;27689;48.390;10.856;2022-07-01T01:42:57;95995.41;;;18.00;95.48
42001;BME280;27689;48.390;10.856;2022-07-01T01:45:41;96006.00;;;18.00;94.19
42001;BME280;27689;48.390;10.856;2022-07-01T01:48:25;95998.91;;;18.07;93.47
42001;BME280;27689;48.390;10.856;2022-07-01T01:51:09;96004.44;;;18.12;93.12
42001;BME280;27689;48.390;10.856;2022-07-01T01:53:53;95989.06;;;18.01;93.89
42001;BME280;27689;48.390;10.856;2022-07-01T01:56:37;95981.50;;;17.97;94.21
42001;BME280;27689;48.390;10.856;2022-07-01T01:59:21;95989.31;;;18.06;94.20
42001;BME280;27689;48.390;10.856;2022-07-01T02:02:05;95992.75;;;18.00;94.69
42001;BME280;27689;48.390;10.856;2022-07-01T02:04:49;96010.66;;;17.97;95.04
42001;BME280;27689;48.390;10.856;2022-07-01T02:07:33;96019.44;;;17.98;94.67
42001;BME280;27689;48.390;10.856;2022-07-01T02:10:17;96014.34;;;17.96;95.09
42001;BME280;27689;48.390;10.856;2022-07-01T02:13:02;96010.88;;;17.96;94.89
42001;BME280;27689;48.390;10.856;2022-07-01T02:15:46;96021.63;;;17.88;96.16
42001;BME280;27689;48.390;10.856;2022-07-01T02:18:31;96025.88;;;17.82;96.87
42001;BME280;27689;48.390;10.856;2022-07-01T02:21:16;96025.66;;;17.77;97.01
42001;BME280;27689;48.390;10.856;2022-07-01T02:24:00;96027.91;;;17.80;97.97
42001;BME280;27689;48.390;10.856;2022-07-01T02:26:44;96033.22;;;17.80;96.98
42001;BME280;27689;48.390;10.856;2022-07-01T02:29:28;96035.72;;;17.88;96.08
42001;BME280;27689;48.390;10.856;2022-07-01T02:32:12;96040.00;;;17.89;97.79
42001;BME280;27689;48.390;10.856;2022-07-01T02:34:56;96053.63;;;17.86;97.69
42001;BME280;27689;48.390;10.856;2022-07-01T02:37:40;96051.16;;;17.85;98.48
42001;BME280;27689;48.390;10.856;2022-07-01T02:40:24;96075.81;;;17.79;99.33
42001;BME280;27689;48.390;10.856;2022-07-01T02:43:08;96084.59;;;17.79;99.38
42001;BME280;27689;48.390;10.856;2022-07-01T02:45:52;96102.72;;;17.82;99.42
42001;BME280;27689;48.390;10.856;2022-07-01T02:48:36;96100.38;;;17.94;97.86
42001;BME280;27689;48.390;10.856;2022-07-01T02:51:19;96111.59;;;17.96;97.48
42001;BME280;27689;48.390;10.856;2022-07-01T02:54:04;96100.75;;;17.91;98.23
42001;BME280;27689;48.390;10.856;2022-07-01T02:56:48;96099.13;;;17.90;98.00
42001;BME280;27689;48.390;10.856;2022-07-01T02:59:33;96101.97;;;17.88;98.38
42001;BME280;27689;48.390;10.856;2022-07-01T03:02:18;96114.34;;;17.81;99.63
42001;BME280;27689;48.390;10.856;2022-07-01T03:05:03;96113.22;;;17.69;100.00
42001;BME280;27689;48.390;10.856;2022-07-01T03:07:47;96107.53;;;17.72;100.00
42001;BME280;27689;48.390;10.856;2022-07-01T03:10:31;96100.59;;;17.71;100.00
42001;BME280;27689;48.390;10.856;2022-07-01T03:13:15;96088.47;;;17.62;100.00
42001;BME280;27689;48.390;10.856;2022-07-01T03:15:59;96088.19;;;17.50;100.00
42001;BME280;27689;48.390;10.856;2022-07-01T03:18:43;96081.63;;;17.46;100.00
42001;BME280;27689;48.390;10.856;2022-07-01T03:21:27;96079.78;;;17.47;100.00
42001;BME280;27689;48.390;10.856;2022-07-01T03:24:11;96087.91;;;17.45;100.00
42001;BME280;27689;48.390;10.856;2022-07-01T03:26:55;96089.38;;;17.48;100.00
42001;BME280;27689;48.390;10.856;2022-07-01T03:29:39;96086.13;;;17.52;100.00
42001;BME280;27689;48.390;10.856;2022-07-01T03:32:23;96080.44;;;17.49;100.00
42001;BME280;27689;48.390;10.856;2022-07-01T03:35:08;96078.00;;;17.54;100.00
42001;BME280;27689;48.390;10.856;2022-07-01T03:38:11;96065.09;;;17.44;100.00
42001;BME280;27689;48.390;10.856;2022-07-01T03:40:55;96068.13;;;17.41;100.00
42001;BME280;27689;48.390;10.856;2022-07-01T03:43:39;96064.81;;;17.39;100.00
42001;BME280;27689;48.390;10.856;2022-07-01T03:46:23;96061.19;;;17.40;100.00
42001;BME280;27689;48.390;10.856;2022-07-01T03:49:07;96049.13;;;17.38;100.00
42001;BME280;27689;48.390;10.856;2022-07-01T03:51:52;96047.72;;;17.35;100.00
42001;BME280;27689;48.390;10.856;2022-07-01T03:54:36;96047.13;;;17.40;100.00
42001;BME280;27689;48.390;10.856;2022-07-01T03:57:22;96047.81;;;17.48;100.00
42001;BME280;27689;48.390;10.856;2022-07-01T04:00:07;96055.63;;;17.56;100.00
42001;BME280;27689;48.390;10.856;2022-07-01T04:02:51;96053.03;;;17.63;100.00
42001;BME280;27689;48.390;10.856;2022-07-01T04:05:37;96036.75;;;17.66;100.00
42001;BME280;27689;48.390;10.856;2022-07-01T04:08:22;96048.63;;;17.70;100.00
42001;BME280;27689;48.390;10.856;2022-07-01T04:11:06;96045.34;;;17.68;100.00
42001;BME280;27689;48.390;10.856;2022-07-01T04:13:52;96055.19;;;17.74;100.00
42001;BME280;27689;48.390;10.856;2022-07-01T04:16:37;96031.75;;;17.78;100.00
42001;BME280;27689;48.390;10.856;2022-07-01T04:19:21;96030.34;;;17.82;100.00
42001;BME280;27689;48.390;10.856;2022-07-01T04:22:05;96033.00;;;17.82;100.00
42001;BME280;27689;48.390;10.856;2022-07-01T04:25:08;96025.28;;;17.87;100.00
42001;BME280;27689;48.390;10.856;2022-07-01T04:27:52;96014.88;;;17.85;100.00
42001;BME280;27689;48.390;10.856;2022-07-01T04:30:36;96053.81;;;17.85;100.00
42001;BME280;27689;48.390;10.856;2022-07-01T04:33:20;96084.16;;;17.82;100.00
42001;BME280;27689;48.390;10.856;2022-07-01T04:36:04;96116.88;;;17.68;100.00
42001;BME280;27689;48.390;10.856;2022-07-01T04:38:48;96139.06;;;17.67;100.00
42001;BME280;27689;48.390;10.856;2022-07-01T04:41:32;96142.47;;;17.61;100.00
42001;BME280;27689;48.390;10.856;2022-07-01T04:44:36;96152.56;;;17.51;100.00
42001;BME280;27689;48.390;10.856;2022-07-01T04:47:21;96144.84;;;17.56;100.00
42001;BME280;27689;48.390;10.856;2022-07-01T04:50:06;96138.75;;;17.55;100.00
42001;BME280;27689;48.390;10.856;2022-07-01T04:52:50;96134.25;;;17.56;100.00
42001;BME280;27689;48.390;10.856;2022-07-01T04:55:34;96145.69;;;17.56;100.00
42001;BME280;27689;48.390;10.856;2022-07-01T04:58:18;96142.03;;;17.57;100.00
42001;BME280;27689;48.390;10.856;2022-07-01T05:01:02;96136.00;;;17.64;100.00
42001;BME280;27689;48.390;10.856;2022-07-01T05:03:46;96141.13;;;17.65;100.00
42001;BME280;27689;48.390;10.856;2022-07-01T05:06:30;96141.34;;;17.49;99.04
42001;BME280;27689;48.390;10.856;2022-07-01T05:09:14;96152.69;;;17.07;100.00
42001;BME280;27689;48.390;10.856;2022-07-01T05:11:58;96168.81;;;16.76;100.00
42001;BME280;27689;48.390;10.856;2022-07-01T05:14:42;96178.47;;;16.69;100.00
42001;BME280;27689;48.390;10.856;2022-07-01T05:17:26;96180.19;;;16.62;100.00
42001;BME280;27689;48.390;10.856;2022-07-01T05:20:30;96169.78;;;16.45;100.00
42001;BME280;27689;48.390;10.856;2022-07-01T05:23:33;96183.88;;;16.23;100.00
42001;BME280;27689;48.390;10.856;2022-07-01T05:26:17;96182.97;;;16.16;100.00
42001;BME280;27689;48.390;10.856;2022-07-01T05:29:01;96202.53;;;16.07;100.00
42001;BME280;27689;48.390;10.856;2022-07-01T05:31:44;96213.88;;;15.93;100.00
42001;BME280;27689;48.390;10.856;2022-07-01T05:34:29;96210.97;;;15.88;100.00
42001;BME280;27689;48.390;10.856;2022-07-01T05:37:13;96212.13;;;15.85;100.00
42001;BME280;27689;48.390;10.856;2022-07-01T05:39:57;96214.94;;;15.61;100.00
42001;BME280;27689;48.390;10.856;2022-07-01T05:42:41;96227.03;;;15.55;100.00
42001;BME280;27689;48.390;10.856;2022-07-01T05:45:25;96235.31;;;15.44;100.00
42001;BME280;27689;48.390;10.856;2022-07-01T05:48:09;96235.69;;;15.41;100.00
42001;BME280;27689;48.390;10.856;2022-07-01T05:50:53;96240.97;;;15.41;100.00
42001;BME280;27689;48.390;10.856;2022-07-01T05:53:37;96243.63;;;15.33;100.00
42001;BME280;27689;48.390;10.856;2022-07-01T05:56:21;96240.88;;;15.26;100.00
42001;BME280;27689;48.390;10.856;2022-07-01T05:59:05;96249.97;;;15.15;100.00
42001;BME280;27689;48.390;10.856;2022-07-01T06:01:49;96242.75;;;15.09;100.00
42001;BME280;27689;48.390;10.856;2022-07-01T06:04:34;96239.56;;;14.83;100.00
42001;BME280;27689;48.390;10.856;2022-07-01T06:07:18;96251.44;;;14.79;100.00
42001;BME280;27689;48.390;10.856;2022-07-01T06:10:02;96260.34;;;14.70;100.00
42001;BME280;27689;48.390;10.856;2022-07-01T06:12:46;96257.09;;;14.68;100.00
42001;BME280;27689;48.390;10.856;2022-07-01T06:15:30;96264.66;;;14.63;100.00
42001;BME280;27689;48.390;10.856;2022-07-01T06:18:14;96265.19;;;14.50;100.00
42001;BME280;27689;48.390;10.856;2022-07-01T06:20:58;96257.09;;;14.52;100.00
42001;BME280;27689;48.390;10.856;2022-07-01T06:23:42;96260.91;;;14.41;100.00
42001;BME280;27689;48.390;10.856;2022-07-01T06:26:26;96266.16;;;14.41;100.00
42001;BME280;27689;48.390;10.856;2022-07-01T06:29:10;96278.19;;;14.35;100.00
42001;BME280;27689;48.390;10.856;2022-07-01T06:31:54;96275.06;;;14.48;100.00
42001;BME280;27689;48.390;10.856;2022-07-01T06:34:38;96276.06;;;14.47;100.00
42001;BME280;27689;48.390;10.856;2022-07-01T06:37:22;96281.66;;;14.44;100.00
42001;BME280;27689;48.390;10.856;2022-07-01T06:40:07;96291.84;;;14.39;100.00
42001;BME280;27689;48.390;10.856;2022-07-01T06:42:51;96296.63;;;14.35;100.00
42001;BME280;27689;48.390;10.856;2022-07-01T06:45:37;96298.13;;;14.46;100.00
42001;BME280;27689;48.390;10.856;2022-07-01T06:48:20;96297.94;;;14.31;100.00
42001;BME280;27689;48.390;10.856;2022-07-01T06:51:04;96293.34;;;14.33;100.00
42001;BME280;27689;48.390;10.856;2022-07-01T06:53:48;96297.94;;;14.39;97.75
42001;BME280;27689;48.390;10.856;2022-07-01T06:56:33;96299.59;;;14.24;98.97
42001;BME280;27689;48.390;10.856;2022-07-01T06:59:17;96305.53;;;14.18;99.67
42001;BME280;27689;48.390;10.856;2022-07-01T07:02:01;96309.13;;;14.01;100.00
42001;BME280;27689;48.390;10.856;2022-07-01T07:04:45;96323.47;;;14.06;100.00
42001;BME280;27689;48.390;10.856;2022-07-01T07:07:30;96323.66;;;14.21;100.00
42001;BME280;27689;48.390;10.856;2022-07-01T07:10:14;96324.97;;;14.17;100.00
42001;BME280;27689;48.390;10.856;2022-07-01T07:12:58;96330.88;;;14.19;100.00
42001;BME280;27689;48.390;10.856;2022-07-01T07:15:42;96340.09;;;14.15;100.00
42001;BME280;27689;48.390;10.856;2022-07-01T07:18:26;96354.91;;;14.16;100.00
42001;BME280;27689;48.390;10.856;2022-07-01T07:21:10;96368.56;;;14.03;100.00
42001;BME280;27689;48.390;10.856;2022-07-01T07:23:54;96358.19;;;14.02;100.00
42001;BME280;27689;48.390;10.856;2022-07-01T07:26:38;96357.72;;;14.06;100.00
42001;BME280;27689;48.390;10.856;2022-07-01T07:29:22;96355.91;;;14.07;100.00
42001;BME280;27689;48.390;10.856;2022-07-01T07:32:06;96366.94;;;14.02;100.00
42001;BME280;27689;48.390;10.856;2022-07-01T07:34:50;96363.63;;;14.00;100.00
42001;BME280;27689;48.390;10.856;2022-07-01T07:37:34;96369.22;;;13.97;100.00
42001;BME280;27689;48.390;10.856;2022-07-01T07:40:17;96363.78;;;13.99;100.00
42001;BME280;27689;48.390;10.856;2022-07-01T07:43:04;96372.81;;;13.96;100.00
42001;BME280;27689;48.390;10.856;2022-07-01T07:45:51;96370.22;;;14.04;100.00
42001;BME280;27689;48.390;10.856;2022-07-01T07:48:35;96373.69;;;14.05;100.00
42001;BME280;27689;48.390;10.856;2022-07-01T07:51:19;96375.97;;;14.00;100.00
42001;BME280;27689;48.390;10.856;2022-07-01T07:54:06;96367.91;;;14.01;100.00
42001;BME280;27689;48.390;10.856;2022-07-01T07:56:50;96365.78;;;14.05;100.00
42001;BME280;27689;48.390;10.856;2022-07-01T07:59:34;96376.84;;;14.08;100.00
42001;BME280;27689;48.390;10.856;2022-07-01T08:02:18;96397.09;;;14.08;100.00
42001;BME280;27689;48.390;10.856;2022-07-01T08:05:02;96407.47;;;14.09;100.00
42001;BME280;27689;48.390;10.856;2022-07-01T08:07:46;96400.69;;;14.15;100.00
42001;BME280;27689;48.390;10.856;2022-07-01T08:10:31;96398.38;;;14.04;100.00
42001;BME280;27689;48.390;10.856;2022-07-01T08:13:14;96392.13;;;14.13;100.00
42001;BME280;27689;48.390;10.856;2022-07-01T08:15:59;96404.50;;;14.21;100.00
42001;BME280;27689;48.390;10.856;2022-07-01T08:18:44;96410.09;;;14.26;100.00
42001;BME280;27689;48.390;10.856;2022-07-01T08:21:29;96420.31;;;14.29;100.00
42001;BME280;27689;48.390;10.856;2022-07-01T08:24:12;96416.72;;;14.30;100.00
42001;BME280;27689;48.390;10.856;2022-07-01T08:26:56;96430.72;;;14.30;100.00
42001;BME280;27689;48.390;10.856;2022-07-01T08:29:40;96426.59;;;14.28;100.00
42001;BME280;27689;48.390;10.856;2022-07-01T08:32:24;96430.19;;;14.27;100.00
42001;BME280;27689;48.390;10.856;2022-07-01T08:35:10;96430.19;;;14.27;100.00
42001;BME280;27689;48.390;10.856;2022-07-01T08:37:53;96428.41;;;14.35;100.00
42001;BME280;27689;48.390;10.856;2022-07-01T08:40:37;96426.13;;;14.40;100.00
42001;BME280;27689;48.390;10.856;2022-07-01T08:43:21;96416.13;;;14.52;100.00
42001;BME280;27689;48.390;10.856;2022-07-01T08:46:07;96411.00;;;14.59;100.00
42001;BME280;27689;48.390;10.856;2022-07-01T08:48:51;96408.22;;;14.68;100.00
42001;BME280;27689;48.390;10.856;2022-07-01T08:51:35;96411.84;;;14.84;100.00
42001;BME280;27689;48.390;10.856;2022-07-01T08:54:19;96413.31;;;14.94;100.00
42001;BME280;27689;48.390;10.856;2022-07-01T08:57:04;96419.75;;;14.92;100.00
42001;BME280;27689;48.390;10.856;2022-07-01T09:00:03;96424.69;;;14.87;99.03
42001;BME280;27689;48.390;10.856;2022-07-01T09:05:38;96412.84;;;14.82;100.00
42001;BME280;27689;48.390;10.856;2022-07-01T09:08:27;96413.63;;;14.91;100.00
42001;BME280;27689;48.390;10.856;2022-07-01T09:11:20;96409.81;;;15.02;100.00
42001;BME280;27689;48.390;10.856;2022-07-01T09:14:10;96424.84;;;14.93;98.58
42001;BME280;27689;48.390;10.856;2022-07-01T09:16:56;96434.25;;;14.96;99.44
42001;BME280;27689;48.390;10.856;2022-07-01T09:19:41;96431.59;;;15.04;100.00
42001;BME280;27689;48.390;10.856;2022-07-01T09:22:25;96429.78;;;15.04;98.76
42001;BME280;27689;48.390;10.856;2022-07-01T09:25:13;96420.72;;;14.99;97.84
42001;BME280;27689;48.390;10.856;2022-07-01T09:28:12;96423.84;;;15.02;99.37
42001;BME280;27689;48.390;10.856;2022-07-01T09:30:57;96418.91;;;15.07;99.08
42001;BME280;27689;48.390;10.856;2022-07-01T09:33:41;96435.88;;;15.05;97.04
42001;BME280;27689;48.390;10.856;2022-07-01T09:36:27;96436.03;;;15.03;95.99
42001;BME280;27689;48.390;10.856;2022-07-01T09:39:11;96444.13;;;15.02;96.99
42001;BME280;27689;48.390;10.856;2022-07-01T09:41:56;96444.63;;;15.05;97.88
42001;BME280;27689;48.390;10.856;2022-07-01T09:44:58;96437.88;;;15.11;96.35
42001;BME280;27689;48.390;10.856;2022-07-01T09:47:42;96437.69;;;15.21;95.11
42001;BME280;27689;48.390;10.856;2022-07-01T09:50:29;96447.28;;;15.13;97.57
42001;BME280;27689;48.390;10.856;2022-07-01T09:53:14;96446.44;;;15.13;95.90
42001;BME280;27689;48.390;10.856;2022-07-01T09:55:58;96455.81;;;15.15;95.65
42001;BME280;27689;48.390;10.856;2022-07-01T09:58:43;96461.44;;;15.21;96.27
42001;BME280;27689;48.390;10.856;2022-07-01T10:01:27;96466.06;;;15.18;95.42
42001;BME280;27689;48.390;10.856;2022-07-01T10:04:13;96459.63;;;15.21;97.23
42001;BME280;27689;48.390;10.856;2022-07-01T10:07:10;96463.75;;;15.07;96.52
42001;BME280;27689;48.390;10.856;2022-07-01T10:12:53;96466.38;;;15.15;95.15
42001;BME280;27689;48.390;10.856;2022-07-01T10:15:40;96462.28;;;15.13;96.50
42001;BME280;27689;48.390;10.856;2022-07-01T10:18:26;96465.09;;;15.11;95.13
42001;BME280;27689;48.390;10.856;2022-07-01T10:21:26;96474.13;;;15.01;96.39
42001;BME280;27689;48.390;10.856;2022-07-01T10:24:16;96473.66;;;14.97;95.96
42001;BME280;27689;48.390;10.856;2022-07-01T10:27:00;96480.09;;;14.95;95.20
42001;BME280;27689;48.390;10.856;2022-07-01T10:29:44;96490.13;;;14.99;95.18
42001;BME280;27689;48.390;10.856;2022-07-01T10:32:28;96481.72;;;15.04;94.95
42001;BME280;27689;48.390;10.856;2022-07-01T10:35:13;96498.88;;;15.08;95.27
42001;BME280;27689;48.390;10.856;2022-07-01T10:38:01;96489.16;;;15.08;94.31
42001;BME280;27689;48.390;10.856;2022-07-01T10:40:46;96493.78;;;15.06;93.60
42001;BME280;27689;48.390;10.856;2022-07-01T10:43:33;96493.44;;;15.09;93.61
42001;BME280;27689;48.390;10.856;2022-07-01T10:46:56;96483.88;;;15.08;92.65
42001;BME280;27689;48.390;10.856;2022-07-01T10:49:50;96494.13;;;15.11;94.11
42001;BME280;27689;48.390;10.856;2022-07-01T10:52:34;96486.50;;;15.16;93.07
42001;BME280;27689;48.390;10.856;2022-07-01T10:55:36;96489.97;;;15.25;92.26
42001;BME280;27689;48.390;10.856;2022-07-01T10:58:36;96485.53;;;15.26;93.27
42001;BME280;27689;48.390;10.856;2022-07-01T11:01:21;96493.59;;;15.32;92.98
42001;BME280;27689;48.390;10.856;2022-07-01T11:04:05;96499.19;;;15.29;92.60
42001;BME280;27689;48.390;10.856;2022-07-01T11:06:49;96498.72;;;15.17;93.75
42001;BME280;27689;48.390;10.856;2022-07-01T11:09:33;96493.94;;;15.21;92.40
42001;BME280;27689;48.390;10.856;2022-07-01T11:12:20;96485.69;;;15.24;92.68
42001;BME280;27689;48.390;10.856;2022-07-01T11:15:05;96493.78;;;15.23;93.50
42001;BME280;27689;48.390;10.856;2022-07-01T11:17:55;96497.56;;;15.28;92.90
42001;BME280;27689;48.390;10.856;2022-07-01T11:20:40;96488.34;;;15.24;92.61
42001;BME280;27689;48.390;10.856;2022-07-01T11:23:24;96482.88;;;15.26;95.08
42001;BME280;27689;48.390;10.856;2022-07-01T11:26:20;96470.34;;;15.28;94.33
42001;BME280;27689;48.390;10.856;2022-07-01T11:29:04;96477.09;;;15.38;94.88
42001;BME280;27689;48.390;10.856;2022-07-01T11:31:48;96484.50;;;15.51;94.51
42001;BME280;27689;48.390;10.856;2022-07-01T11:34:32;96490.44;;;15.61;94.14
42001;BME280;27689;48.390;10.856;2022-07-01T11:37:18;96495.88;;;15.60;90.85
42001;BME280;27689;48.390;10.856;2022-07-01T11:40:22;96480.84;;;15.68;92.42
42001;BME280;27689;48.390;10.856;2022-07-01T11:43:24;96486.63;;;15.64;90.81
42001;BME280;27689;48.390;10.856;2022-07-01T11:46:09;96494.06;;;15.60;91.16
42001;BME280;27689;48.390;10.856;2022-07-01T11:48:53;96500.16;;;15.61;91.33
42001;BME280;27689;48.390;10.856;2022-07-01T11:51:38;96512.06;;;15.65;91.59
42001;BME280;27689;48.390;10.856;2022-07-01T11:54:22;96500.00;;;15.54;90.88
42001;BME280;27689;48.390;10.856;2022-07-01T11:57:17;96512.88;;;15.49;90.71
42001;BME280;27689;48.390;10.856;2022-07-01T12:00:12;96520.81;;;15.41;91.53
42001;BME280;27689;48.390;10.856;2022-07-01T12:02:56;96525.28;;;15.40;91.97
42001;BME280;27689;48.390;10.856;2022-07-01T12:05:40;96528.38;;;15.44;93.09
42001;BME280;27689;48.390;10.856;2022-07-01T12:08:24;96536.16;;;15.45;93.89
42001;BME280;27689;48.390;10.856;2022-07-01T12:11:08;96542.59;;;15.59;94.40
42001;BME280;27689;48.390;10.856;2022-07-01T12:13:53;96553.34;;;15.58;93.90
42001;BME280;27689;48.390;10.856;2022-07-01T12:16:39;96554.97;;;15.50;95.29
42001;BME280;27689;48.390;10.856;2022-07-01T12:19:43;96569.31;;;15.48;95.57
42001;BME280;27689;48.390;10.856;2022-07-01T12:22:28;96577.41;;;15.46;95.64
42001;BME280;27689;48.390;10.856;2022-07-01T12:25:13;96586.16;;;15.39;95.96
42001;BME280;27689;48.390;10.856;2022-07-01T12:27:58;96580.56;;;15.42;96.80
42001;BME280;27689;48.390;10.856;2022-07-01T12:30:42;96572.44;;;15.43;96.79
42001;BME280;27689;48.390;10.856;2022-07-01T12:33:26;96564.72;;;15.42;96.65
42001;BME280;27689;48.390;10.856;2022-07-01T12:36:10;96553.66;;;15.30;96.65
42001;BME280;27689;48.390;10.856;2022-07-01T12:39:14;96579.41;;;15.28;96.44
42001;BME280;27689;48.390;10.856;2022-07-01T12:41:58;96591.28;;;15.24;97.99
42001;BME280;27689;48.390;10.856;2022-07-01T12:44:45;96597.06;;;15.28;98.18
42001;BME280;27689;48.390;10.856;2022-07-01T12:47:35;96595.56;;;15.25;96.52
42001;BME280;27689;48.390;10.856;2022-07-01T12:50:23;96599.84;;;15.18;97.71
42001;BME280;27689;48.390;10.856;2022-07-01T12:53:12;96597.72;;;15.13;97.76
42001;BME280;27689;48.390;10.856;2022-07-01T12:56:00;96585.81;;;15.09;97.77
42001;BME280;27689;48.390;10.856;2022-07-01T12:58:45;96578.22;;;15.06;97.09
42001;BME280;27689;48.390;10.856;2022-07-01T13:01:29;96548.69;;;15.03;97.53
42001;BME280;27689;48.390;10.856;2022-07-01T13:04:12;96530.56;;;15.08;99.73
42001;BME280;27689;48.390;10.856;2022-07-01T13:06:56;96511.75;;;15.19;99.12
42001;BME280;27689;48.390;10.856;2022-07-01T13:09:41;96498.88;;;15.16;98.55
42001;BME280;27689;48.390;10.856;2022-07-01T13:12:25;96497.25;;;15.23;99.27
42001;BME280;27689;48.390;10.856;2022-07-01T13:15:09;96518.34;;;15.23;96.75
42001;BME280;27689;48.390;10.856;2022-07-01T13:17:53;96538.97;;;15.20;99.06
42001;BME280;27689;48.390;10.856;2022-07-01T13:20:37;96550.19;;;15.22;99.36
42001;BME280;27689;48.390;10.856;2022-07-01T13:23:23;96532.03;;;15.18;99.35
42001;BME280;27689;48.390;10.856;2022-07-01T13:26:07;96542.91;;;15.15;100.00
42001;BME280;27689;48.390;10.856;2022-07-01T13:28:51;96548.22;;;15.07;100.00
42001;BME280;27689;48.390;10.856;2022-07-01T13:31:35;96577.72;;;15.03;100.00
42001;BME280;27689;48.390;10.856;2022-07-01T13:34:20;96587.59;;;15.01;100.00
42001;BME280;27689;48.390;10.856;2022-07-01T13:37:04;96609.88;;;14.98;100.00
42001;BME280;27689;48.390;10.856;2022-07-01T13:39:48;96617.47;;;15.01;100.00
42001;BME280;27689;48.390;10.856;2022-07-01T13:42:32;96627.34;;;14.91;100.00
42001;BME280;27689;48.390;10.856;2022-07-01T13:45:16;96632.94;;;14.88;100.00
42001;BME280;27689;48.390;10.856;2022-07-01T13:48:00;96636.06;;;14.92;100.00
42001;BME280;27689;48.390;10.856;2022-07-01T13:50:44;96643.69;;;14.95;100.00
42001;BME280;27689;48.390;10.856;2022-07-01T13:53:28;96626.69;;;14.97;100.00
42001;BME280;27689;48.390;10.856;2022-07-01T13:56:12;96613.63;;;14.88;100.00
42001;BME280;27689;48.390;10.856;2022-07-01T13:58:56;96598.16;;;14.93;100.00
42001;BME280;27689;48.390;10.856;2022-07-01T14:01:40;96591.72;;;15.03;100.00
42001;BME280;27689;48.390;10.856;2022-07-01T14:04:24;96590.44;;;15.07;100.00
42001;BME280;27689;48.390;10.856;2022-07-01T14:07:08;96584.16;;;15.08;100.00
42001;BME280;27689;48.390;10.856;2022-07-01T14:09:51;96589.13;;;15.11;100.00
42001;BME280;27689;48.390;10.856;2022-07-01T14:12:35;96602.00;;;15.23;100.00
42001;BME280;27689;48.390;10.856;2022-07-01T14:15:19;96613.22;;;15.25;100.00
42001;BME280;27689;48.390;10.856;2022-07-01T14:18:04;96625.28;;;15.35;100.00
42001;BME280;27689;48.390;10.856;2022-07-01T14:20:48;96626.09;;;15.44;100.00
42001;BME280;27689;48.390;10.856;2022-07-01T14:23:31;96629.75;;;15.43;100.00
42001;BME280;27689;48.390;10.856;2022-07-01T14:26:16;96634.03;;;15.52;100.00